aviador You're here:

LEVC Decoded Metar

VALENCIA in SPAIN
Report Time2018-05-26 08:00:00
UTC Time2018-05-26 08:17:50
Flight Rules mvfr MVFR
Wind060° at 10 kt
W.Decomp.*RWY 12: 5.2 kt HW 8.6 kt LCW
W.Rank060° ranks 16
Current wind is above 060° avg. (7.2)
Visibility9999 m
Phenomena:N/A
Clouds:Few 010 Hf
Scattered 014 Hf
Broken 020 Hf
Expected CloudBase > 1,600 ft AGL from Temp-Dew spread
Ceiling2,000 ft
Temp21°C (ISA +6)
Dew Point17°C (78% RH)
AAT19.8°C
QNH1014 hPa
Density Alt1,175 ft
Elevation203 ft
Report Wrong Elevation
Raw Report
LEVC 260800Z 06010KT 040V110 9999 FEW010 SCT014 BKN020 21/17 Q1014
NOSIG=

Extra information for LEVC:More info

Metar Taf Metar & Taf Last 4 Metars F.Rules Stats Wind Profile Meteogram Temp Stats Airport Information Weather charts Add Link Nearby VenuesMetar ALERT Operation Metar Decoded Social comments

Webcam Valencia